createdAt,value
2022-08-24T00:01:09.041Z,66.07
2022-08-24T00:03:42.900Z,65.90
2022-08-24T00:06:19.221Z,65.87
2022-08-24T00:08:52.656Z,66.03
2022-08-24T00:11:24.795Z,66.02
2022-08-24T00:13:57.446Z,66.07
2022-08-24T00:16:29.937Z,66.20
2022-08-24T00:19:02.045Z,66.09
2022-08-24T00:21:35.066Z,66.18
2022-08-24T00:24:07.987Z,66.20
2022-08-24T00:26:40.753Z,66.33
2022-08-24T00:29:14.702Z,66.43
2022-08-24T00:31:47.255Z,66.40
2022-08-24T00:34:20.052Z,66.35
2022-08-24T00:36:52.232Z,66.36
2022-08-24T00:39:24.775Z,66.59
2022-08-24T00:41:57.136Z,66.64
2022-08-24T00:44:30.406Z,66.63
2022-08-24T00:47:06.780Z,66.69
2022-08-24T00:49:43.463Z,66.63
2022-08-24T00:52:19.731Z,66.58
2022-08-24T00:54:56.531Z,66.72
2022-08-24T00:57:31.779Z,66.65
2022-08-24T01:00:09.852Z,66.68
2022-08-24T01:02:45.674Z,66.81
2022-08-24T01:05:19.462Z,67.04
2022-08-24T01:07:51.637Z,66.91
2022-08-24T01:10:28.049Z,67.00
2022-08-24T01:13:03.281Z,67.36
2022-08-24T01:15:42.857Z,67.16
2022-08-24T01:18:37.063Z,67.36
2022-08-24T01:21:15.889Z,67.51
2022-08-24T01:23:50.037Z,67.53
2022-08-24T01:26:27.193Z,67.52
2022-08-24T01:29:04.849Z,67.64
2022-08-24T01:31:38.923Z,67.66
2022-08-24T01:34:11.307Z,67.67
2022-08-24T01:36:46.565Z,67.76
2022-08-24T01:39:22.776Z,67.72
2022-08-24T01:41:55.920Z,67.85
2022-08-24T01:44:34.286Z,67.84
2022-08-24T01:47:09.047Z,68.07
2022-08-24T01:49:43.815Z,68.01
2022-08-24T01:52:19.105Z,68.21
2022-08-24T01:54:51.242Z,68.07
2022-08-24T01:57:27.549Z,67.94
2022-08-24T02:00:02.209Z,68.20
2022-08-24T02:02:45.841Z,68.24
2022-08-24T02:05:18.719Z,68.21
2022-08-24T02:07:51.161Z,68.13
2022-08-24T02:10:23.742Z,68.22
2022-08-24T02:12:59.533Z,68.10
2022-08-24T02:15:36.421Z,68.42
2022-08-24T02:18:14.885Z,68.37
2022-08-24T02:20:48.317Z,68.58
2022-08-24T02:23:21.345Z,68.66
2022-08-24T02:25:53.947Z,68.61
2022-08-24T02:28:26.446Z,68.55
2022-08-24T02:30:58.802Z,68.82
2022-08-24T02:33:31.203Z,68.70
2022-08-24T02:36:04.094Z,68.68
2022-08-24T02:38:42.595Z,68.83
2022-08-24T02:41:19.125Z,68.69
2022-08-24T02:43:51.679Z,68.74
2022-08-24T02:46:26.859Z,69.05
2022-08-24T02:49:10.887Z,68.92
2022-08-24T02:51:48.494Z,68.94
2022-08-24T02:54:24.963Z,69.01
2022-08-24T02:56:57.480Z,69.17
2022-08-24T02:59:30.132Z,68.96
2022-08-24T03:02:03.122Z,69.11
2022-08-24T03:04:35.879Z,69.14
2022-08-24T03:07:08.779Z,68.99
2022-08-24T03:09:40.846Z,69.13
2022-08-24T03:12:13.239Z,69.08
2022-08-24T03:14:45.295Z,69.27
2022-08-24T03:17:17.474Z,69.09
2022-08-24T03:19:49.549Z,69.12
2022-08-24T03:22:22.083Z,69.04
2022-08-24T03:24:54.202Z,69.18
2022-08-24T03:27:27.017Z,69.12
2022-08-24T03:29:59.244Z,69.13
2022-08-24T03:32:32.320Z,69.00
2022-08-24T03:35:04.707Z,69.08
2022-08-24T03:37:37.573Z,69.09
2022-08-24T03:40:23.177Z,69.31
2022-08-24T03:42:58.703Z,69.10
2022-08-24T03:45:32.379Z,69.09
2022-08-24T03:48:05.447Z,69.22
2022-08-24T03:50:38.122Z,69.32
2022-08-24T03:53:10.176Z,69.21
2022-08-24T03:55:42.270Z,69.05
2022-08-24T03:58:14.619Z,69.13
2022-08-24T04:00:47.316Z,69.02
2022-08-24T04:03:19.604Z,69.22
2022-08-24T04:05:51.772Z,69.12
2022-08-24T04:08:25.591Z,69.12
2022-08-24T04:10:57.721Z,68.97
2022-08-24T04:13:32.199Z,69.10
2022-08-24T04:16:09.684Z,69.05
2022-08-24T04:18:42.636Z,69.04
2022-08-24T04:21:21.992Z,69.27
2022-08-24T04:23:55.096Z,69.04
2022-08-24T04:26:44.834Z,69.13
2022-08-24T04:29:21.189Z,69.12
2022-08-24T04:31:59.118Z,69.25
2022-08-24T04:34:31.489Z,69.25
2022-08-24T04:37:04.756Z,69.06
2022-08-24T04:39:42.592Z,69.06
2022-08-24T04:42:37.556Z,69.08
2022-08-24T04:45:11.868Z,69.11
2022-08-24T04:47:44.722Z,69.13
2022-08-24T04:50:17.316Z,69.05
2022-08-24T04:52:56.431Z,68.94
2022-08-24T04:55:29.048Z,68.96
2022-08-24T04:58:02.544Z,68.86
2022-08-24T05:00:34.694Z,68.82
2022-08-24T05:03:07.581Z,68.63
2022-08-24T05:05:43.103Z,68.64
2022-08-24T05:08:16.105Z,68.53
2022-08-24T05:10:51.071Z,68.46
2022-08-24T05:13:23.709Z,68.32
2022-08-24T05:15:55.855Z,68.33
2022-08-24T05:18:30.050Z,68.35
2022-08-24T05:21:02.548Z,68.26
2022-08-24T05:23:35.392Z,68.22
2022-08-24T05:26:10.586Z,68.15
2022-08-24T05:28:43.733Z,67.83
2022-08-24T05:31:19.985Z,67.47
2022-08-24T05:33:52.643Z,67.00
2022-08-24T05:36:27.052Z,66.71
2022-08-24T05:39:00.813Z,66.30
2022-08-24T05:41:33.204Z,66.23
2022-08-24T05:44:14.367Z,66.01
2022-08-24T05:46:47.717Z,65.86
2022-08-24T05:49:19.838Z,65.72
2022-08-24T05:51:51.990Z,65.63
2022-08-24T05:54:27.032Z,65.51
2022-08-24T05:57:05.273Z,65.35
2022-08-24T05:59:49.331Z,65.43
2022-08-24T06:02:23.801Z,65.25
2022-08-24T06:04:56.601Z,65.32
2022-08-24T06:07:28.755Z,65.28
2022-08-24T06:10:20.281Z,65.30
2022-08-24T06:12:54.119Z,65.03
2022-08-24T06:15:26.338Z,64.80
2022-08-24T06:17:58.827Z,65.02
2022-08-24T06:20:31.819Z,64.96
2022-08-24T06:23:04.034Z,64.41
2022-08-24T06:26:00.748Z,64.12
2022-08-24T06:28:33.830Z,63.52
2022-08-24T06:31:07.687Z,62.51
2022-08-24T06:33:39.913Z,62.33
2022-08-24T06:36:12.644Z,62.00
2022-08-24T06:38:45.420Z,61.58
2022-08-24T06:41:20.748Z,61.07
2022-08-24T06:43:53.178Z,60.58
2022-08-24T06:46:32.863Z,60.26
2022-08-24T06:49:05.866Z,60.21
2022-08-24T06:51:40.574Z,59.59
2022-08-24T06:54:13.412Z,59.31
2022-08-24T06:56:46.275Z,59.03
2022-08-24T06:59:19.185Z,57.99
2022-08-24T07:01:51.371Z,57.57
2022-08-24T07:04:28.002Z,57.21
2022-08-24T07:07:09.729Z,56.28
2022-08-24T07:09:42.740Z,55.75
2022-08-24T07:12:14.831Z,55.11
2022-08-24T07:14:47.318Z,54.52
2022-08-24T07:17:19.438Z,54.37
2022-08-24T07:19:51.973Z,54.08
2022-08-24T07:22:47.080Z,53.79
2022-08-24T07:25:19.988Z,53.60
2022-08-24T07:27:52.772Z,53.67
2022-08-24T07:30:27.644Z,53.54
2022-08-24T07:33:01.265Z,53.56
2022-08-24T07:35:34.903Z,53.69
2022-08-24T07:38:08.879Z,53.52
2022-08-24T07:41:05.210Z,53.73
2022-08-24T07:43:33.621Z,53.54
2022-08-24T07:46:08.398Z,53.68
2022-08-24T07:48:41.995Z,53.62
2022-08-24T07:51:16.258Z,52.95
2022-08-24T07:53:53.880Z,52.08
2022-08-24T07:56:31.889Z,51.09
2022-08-24T07:59:08.697Z,50.95
2022-08-24T08:01:45.318Z,50.72
2022-08-24T08:04:22.019Z,50.84
2022-08-24T08:09:33.071Z,51.31
2022-08-24T08:12:06.616Z,51.43
2022-08-24T08:14:39.073Z,51.51
2022-08-24T08:17:11.196Z,51.31
2022-08-24T08:19:43.963Z,50.81
2022-08-24T08:22:33.630Z,50.93
2022-08-24T08:25:24.985Z,50.45
2022-08-24T08:28:04.265Z,50.67
2022-08-24T08:30:45.748Z,50.82
2022-08-24T08:33:19.122Z,50.51
2022-08-24T08:35:53.988Z,49.72
2022-08-24T08:38:27.333Z,49.55
2022-08-24T08:41:09.692Z,49.12
2022-08-24T08:43:48.499Z,48.96
2022-08-24T08:46:33.948Z,48.94
2022-08-24T08:49:44.204Z,49.58
2022-08-24T08:52:47.970Z,49.74
2022-08-24T08:55:31.912Z,49.62
2022-08-24T08:58:18.281Z,49.21
2022-08-24T09:01:04.748Z,48.62
2022-08-24T09:03:57.944Z,47.61
2022-08-24T09:07:03.226Z,47.00
2022-08-24T09:10:05.805Z,46.82
2022-08-24T09:12:55.855Z,46.28
2022-08-24T09:15:58.027Z,45.92
2022-08-24T09:18:45.040Z,45.71
2022-08-24T09:21:41.633Z,45.64
2022-08-24T09:24:37.362Z,45.61
2022-08-24T09:27:24.759Z,46.03
2022-08-24T09:30:09.896Z,46.29
2022-08-24T09:32:59.195Z,46.41
2022-08-24T09:35:49.514Z,46.66
2022-08-24T09:39:00.199Z,46.47
2022-08-24T09:42:15.438Z,46.64
2022-08-24T09:45:17.859Z,46.77
2022-08-24T09:48:16.035Z,46.86
2022-08-24T09:51:09.891Z,46.92
2022-08-24T09:54:07.671Z,47.08
2022-08-24T09:57:12.475Z,47.19
2022-08-24T10:00:08.270Z,47.38
2022-08-24T10:02:59.515Z,47.11
2022-08-24T10:05:44.956Z,46.95
2022-08-24T10:08:30.223Z,46.20
2022-08-24T10:11:14.810Z,45.98
2022-08-24T10:13:56.928Z,45.39
2022-08-24T10:16:40.138Z,44.68
2022-08-24T10:19:32.547Z,43.56
2022-08-24T10:22:17.283Z,42.80
2022-08-24T10:25:05.300Z,42.47
2022-08-24T10:27:47.905Z,41.53
2022-08-24T10:30:48.556Z,40.98
2022-08-24T10:33:25.572Z,40.78
2022-08-24T10:36:27.926Z,40.60
2022-08-24T10:39:40.736Z,40.43
2022-08-24T10:43:02.515Z,40.12
2022-08-24T10:45:57.081Z,40.39
2022-08-24T10:48:59.973Z,39.89
2022-08-24T10:51:50.394Z,40.06
2022-08-24T10:54:24.116Z,39.70
2022-08-24T10:57:02.651Z,39.64
2022-08-24T10:59:42.479Z,39.66
2022-08-24T11:02:34.806Z,40.10
2022-08-24T11:05:13.120Z,40.49
2022-08-24T11:07:59.419Z,40.65
2022-08-24T11:10:34.557Z,41.03
2022-08-24T11:13:24.456Z,41.16
2022-08-24T11:15:58.369Z,41.72
2022-08-24T11:18:50.416Z,41.79
2022-08-24T11:21:41.816Z,42.78
2022-08-24T11:24:27.603Z,42.68
2022-08-24T11:27:03.965Z,42.96
2022-08-24T11:30:00.799Z,43.05
2022-08-24T11:32:39.092Z,43.19
2022-08-24T11:35:21.146Z,43.67
2022-08-24T11:37:56.193Z,43.95
2022-08-24T11:40:35.107Z,44.08
2022-08-24T11:43:27.781Z,44.53
2022-08-24T11:46:14.836Z,44.87
2022-08-24T11:48:59.902Z,45.13
2022-08-24T11:51:42.261Z,45.14
2022-08-24T11:54:24.817Z,45.41
2022-08-24T11:57:09.148Z,45.70
2022-08-24T11:59:52.048Z,45.94
2022-08-24T12:02:32.824Z,46.07
2022-08-24T12:05:16.231Z,45.96
2022-08-24T12:07:59.692Z,46.26
2022-08-24T12:10:47.928Z,46.24
2022-08-24T12:13:33.761Z,46.40
2022-08-24T12:16:17.630Z,46.52
2022-08-24T12:18:56.818Z,46.61
2022-08-24T12:21:33.745Z,46.40
2022-08-24T12:24:10.367Z,46.63
2022-08-24T12:26:46.752Z,46.59
2022-08-24T12:29:31.716Z,46.54
2022-08-24T12:32:08.312Z,46.71
2022-08-24T12:34:50.058Z,46.34
2022-08-24T12:37:28.566Z,46.25
2022-08-24T12:40:08.861Z,46.25
2022-08-24T12:42:52.607Z,45.87
2022-08-24T12:45:26.773Z,45.96
2022-08-24T12:48:03.969Z,46.02
2022-08-24T12:50:49.631Z,46.15
2022-08-24T12:53:43.312Z,45.89
2022-08-24T12:57:02.634Z,45.76
2022-08-24T12:59:42.124Z,45.48
2022-08-24T13:05:23.948Z,45.23
2022-08-24T13:08:14.032Z,44.92
2022-08-24T13:10:54.809Z,44.60
2022-08-24T13:13:44.825Z,44.36
2022-08-24T13:16:51.107Z,44.07
2022-08-24T13:19:38.812Z,44.01
2022-08-24T13:22:48.312Z,43.51
2022-08-24T13:25:53.364Z,43.47
2022-08-24T13:28:39.251Z,43.62
2022-08-24T13:31:31.627Z,43.43
2022-08-24T13:34:41.511Z,43.11
2022-08-24T13:37:22.448Z,43.17
2022-08-24T13:40:15.103Z,43.17
2022-08-24T13:43:08.718Z,42.91
2022-08-24T13:45:47.458Z,43.06
2022-08-24T13:48:38.931Z,43.01
2022-08-24T13:51:36.475Z,43.02
2022-08-24T13:54:27.903Z,43.14
2022-08-24T13:57:13.868Z,42.87
2022-08-24T14:00:12.668Z,43.26
2022-08-24T14:03:06.661Z,42.85
2022-08-24T14:05:47.618Z,42.23
2022-08-24T14:08:32.061Z,41.79
2022-08-24T14:11:12.241Z,42.14
2022-08-24T14:14:01.977Z,41.98
2022-08-24T14:17:19.634Z,41.96
2022-08-24T14:20:04.626Z,41.59
2022-08-24T14:22:53.129Z,41.92
2022-08-24T14:25:30.404Z,41.91
2022-08-24T14:28:38.116Z,41.77
2022-08-24T14:31:21.495Z,41.31
2022-08-24T14:34:12.688Z,41.32
2022-08-24T14:36:57.286Z,41.57
2022-08-24T14:39:40.461Z,41.31
2022-08-24T14:42:23.149Z,41.42
2022-08-24T14:45:06.475Z,41.83
2022-08-24T14:47:52.394Z,42.13
2022-08-24T14:50:31.696Z,41.92
2022-08-24T14:53:24.081Z,41.94
2022-08-24T14:56:09.089Z,42.24
2022-08-24T14:58:51.007Z,42.10
2022-08-24T15:01:41.326Z,41.78
2022-08-24T15:04:38.466Z,41.83
2022-08-24T15:07:29.568Z,41.79
2022-08-24T15:10:04.469Z,41.04
2022-08-24T15:12:44.205Z,41.16
2022-08-24T15:15:28.461Z,41.28
2022-08-24T15:18:07.920Z,41.19
2022-08-24T15:21:01.125Z,40.96
2022-08-24T15:23:47.218Z,41.07
2022-08-24T15:26:28.804Z,41.27
2022-08-24T15:29:13.331Z,41.27
2022-08-24T15:31:56.091Z,41.27
2022-08-24T15:34:40.041Z,41.64
2022-08-24T15:37:12.676Z,41.44
2022-08-24T15:39:46.076Z,41.60
2022-08-24T15:42:19.303Z,41.68
2022-08-24T15:44:53.759Z,41.56
2022-08-24T15:47:31.310Z,41.67
2022-08-24T15:50:07.767Z,41.78
2022-08-24T15:52:57.777Z,41.69
2022-08-24T15:55:38.422Z,41.83
2022-08-24T15:58:33.621Z,41.83
2022-08-24T16:01:42.606Z,41.85
2022-08-24T16:04:41.159Z,42.07
2022-08-24T16:07:23.145Z,42.05
2022-08-24T16:10:09.939Z,42.07
2022-08-24T16:12:42.773Z,41.98
2022-08-24T16:15:19.378Z,42.12
2022-08-24T16:17:51.680Z,41.95
2022-08-24T16:20:36.024Z,42.21
2022-08-24T16:23:11.869Z,42.28
2022-08-24T16:25:51.203Z,42.33
2022-08-24T16:28:39.135Z,42.35
2022-08-24T16:31:12.583Z,42.35
2022-08-24T16:33:49.118Z,42.39
2022-08-24T16:36:22.511Z,42.41
2022-08-24T16:38:55.119Z,42.69
2022-08-24T16:41:27.820Z,43.02
2022-08-24T16:44:01.480Z,43.20
2022-08-24T16:46:33.978Z,43.39
2022-08-24T16:49:08.716Z,43.54
2022-08-24T16:51:45.309Z,43.53
2022-08-24T16:54:19.908Z,43.71
2022-08-24T16:56:52.414Z,43.84
2022-08-24T16:59:28.841Z,43.92
2022-08-24T17:02:02.105Z,44.01
2022-08-24T17:04:34.619Z,44.18
2022-08-24T17:07:10.091Z,44.49
2022-08-24T17:09:57.656Z,44.58
2022-08-24T17:12:32.196Z,44.78
2022-08-24T17:15:05.200Z,44.99
2022-08-24T17:17:38.477Z,45.17
2022-08-24T17:20:12.377Z,45.22
2022-08-24T17:22:44.404Z,45.57
2022-08-24T17:25:16.583Z,45.74
2022-08-24T17:27:49.301Z,45.94
2022-08-24T17:30:23.542Z,46.11
2022-08-24T17:32:56.306Z,46.40
2022-08-24T17:35:31.703Z,46.66
2022-08-24T17:38:04.647Z,47.00
2022-08-24T17:40:37.882Z,47.32
2022-08-24T17:43:10.672Z,47.39
2022-08-24T17:45:43.510Z,47.50
2022-08-24T17:48:22.523Z,47.82
2022-08-24T17:50:54.888Z,47.98
2022-08-24T17:53:27.084Z,47.94
2022-08-24T17:55:59.338Z,48.29
2022-08-24T17:58:31.884Z,48.64
2022-08-24T18:01:04.153Z,48.98
2022-08-24T18:03:36.407Z,49.27
2022-08-24T18:06:09.046Z,49.80
2022-08-24T18:08:41.210Z,49.97
2022-08-24T18:11:13.308Z,50.35
2022-08-24T18:13:45.503Z,50.79
2022-08-24T18:16:22.219Z,51.17
2022-08-24T18:18:55.498Z,51.42
2022-08-24T18:21:27.573Z,51.56
2022-08-24T18:24:01.534Z,51.88
2022-08-24T18:26:34.130Z,52.31
2022-08-24T18:29:15.091Z,52.75
2022-08-24T18:31:48.091Z,53.06
2022-08-24T18:34:22.951Z,53.04
2022-08-24T18:36:55.869Z,53.36
2022-08-24T18:39:27.936Z,53.52
2022-08-24T18:42:02.521Z,53.99
2022-08-24T18:44:35.094Z,54.26
2022-08-24T18:47:08.069Z,54.42
2022-08-24T18:49:40.153Z,54.56
2022-08-24T18:52:16.607Z,54.31
2022-08-24T18:54:51.119Z,54.48
2022-08-24T18:57:23.486Z,54.61
2022-08-24T18:59:55.891Z,54.66
2022-08-24T19:02:34.267Z,54.75
2022-08-24T19:05:10.821Z,54.89
2022-08-24T19:07:42.479Z,54.92
2022-08-24T19:10:18.865Z,55.72
2022-08-24T19:12:54.028Z,55.69
2022-08-24T19:15:30.894Z,55.35
2022-08-24T19:18:12.756Z,55.47
2022-08-24T19:20:48.522Z,55.60
2022-08-24T19:23:25.962Z,55.74
2022-08-24T19:26:00.473Z,55.50
2022-08-24T19:28:33.286Z,55.56
2022-08-24T19:31:08.901Z,55.20
2022-08-24T19:33:46.543Z,55.31
2022-08-24T19:36:23.508Z,56.02
2022-08-24T19:38:55.738Z,56.33
2022-08-24T19:41:36.895Z,57.01
2022-08-24T19:44:28.061Z,58.42
2022-08-24T19:47:00.351Z,58.60
2022-08-24T19:49:34.331Z,59.36
2022-08-24T19:52:07.693Z,59.42
2022-08-24T19:54:42.340Z,59.58
2022-08-24T19:57:46.310Z,60.41
2022-08-24T20:00:35.554Z,60.90
2022-08-24T20:03:08.681Z,61.49
2022-08-24T20:05:41.232Z,61.37
2022-08-24T20:08:14.336Z,62.04
2022-08-24T20:10:46.390Z,62.56
2022-08-24T20:13:18.793Z,62.88
2022-08-24T20:15:51.096Z,63.29
2022-08-24T20:18:27.863Z,63.61
2022-08-24T20:20:58.538Z,63.94
2022-08-24T20:23:31.679Z,64.40
2022-08-24T20:26:06.805Z,64.51
2022-08-24T20:28:44.274Z,64.71
2022-08-24T20:31:17.818Z,65.00
2022-08-24T20:33:52.256Z,65.12
2022-08-24T20:36:28.729Z,65.49
2022-08-24T20:39:02.164Z,65.71
2022-08-24T20:41:35.710Z,65.89
2022-08-24T20:44:09.384Z,66.10
2022-08-24T20:46:46.552Z,66.63
2022-08-24T20:49:20.932Z,66.85
2022-08-24T20:51:52.990Z,67.06
2022-08-24T20:54:25.141Z,67.18
2022-08-24T20:56:57.358Z,67.44
2022-08-24T20:59:30.515Z,67.59
2022-08-24T21:02:03.162Z,67.93
2022-08-24T21:04:35.274Z,68.17
2022-08-24T21:07:10.509Z,68.44
2022-08-24T21:09:43.119Z,68.66
2022-08-24T21:12:15.757Z,68.97
2022-08-24T21:14:47.812Z,69.13
2022-08-24T21:17:25.460Z,69.33
2022-08-24T21:19:57.525Z,69.71
2022-08-24T21:22:29.713Z,70.10
2022-08-24T21:25:01.844Z,70.14
2022-08-24T21:27:35.303Z,70.17
2022-08-24T21:30:10.851Z,70.50
2022-08-24T21:33:00.379Z,70.59
2022-08-24T21:35:32.538Z,70.75
2022-08-24T21:38:05.723Z,71.03
2022-08-24T21:40:40.044Z,71.05
2022-08-24T21:43:14.619Z,71.06
2022-08-24T21:45:50.897Z,71.22
2022-08-24T21:48:23.002Z,71.30
2022-08-24T21:50:55.257Z,71.60
2022-08-24T21:53:28.687Z,71.70
2022-08-24T21:56:03.006Z,71.74
2022-08-24T21:58:35.141Z,71.84
2022-08-24T22:01:08.281Z,72.05
2022-08-24T22:03:40.515Z,72.02
2022-08-24T22:06:13.901Z,72.16
2022-08-24T22:08:46.293Z,72.19
2022-08-24T22:11:20.300Z,72.29
2022-08-24T22:13:52.551Z,72.34
2022-08-24T22:16:25.612Z,72.38
2022-08-24T22:18:57.763Z,72.47
2022-08-24T22:21:36.097Z,72.44
2022-08-24T22:24:09.308Z,72.75
2022-08-24T22:26:42.210Z,72.78
2022-08-24T22:29:14.346Z,72.84
2022-08-24T22:31:47.034Z,72.91
2022-08-24T22:34:20.821Z,73.01
2022-08-24T22:36:56.957Z,72.91
2022-08-24T22:39:29.039Z,73.01
2022-08-24T22:42:01.530Z,73.00
2022-08-24T22:44:34.042Z,73.21
2022-08-24T22:47:13.109Z,73.13
2022-08-24T22:49:47.476Z,73.17
2022-08-24T22:52:19.583Z,72.98
2022-08-24T22:54:51.689Z,73.16
2022-08-24T22:57:23.741Z,72.92
2022-08-24T22:59:55.806Z,72.91
2022-08-24T23:02:27.961Z,72.87
2022-08-24T23:05:00.016Z,72.77
2022-08-24T23:07:32.149Z,72.87
2022-08-24T23:10:04.852Z,72.86
2022-08-24T23:12:36.881Z,72.66
2022-08-24T23:15:10.935Z,72.83
2022-08-24T23:17:43.729Z,72.77
2022-08-24T23:20:15.876Z,72.86
2022-08-24T23:22:49.988Z,72.95
2022-08-24T23:25:22.233Z,72.94
2022-08-24T23:27:54.508Z,72.74
2022-08-24T23:30:26.732Z,72.92
2022-08-24T23:32:59.066Z,72.78
2022-08-24T23:35:31.430Z,72.82
2022-08-24T23:38:03.661Z,72.89
2022-08-24T23:40:35.856Z,73.00
2022-08-24T23:43:07.987Z,73.05
2022-08-24T23:45:41.779Z,72.96
2022-08-24T23:48:13.939Z,73.14
2022-08-24T23:50:48.951Z,73.18
2022-08-24T23:53:21.043Z,73.21
2022-08-24T23:55:54.173Z,73.48
2022-08-24T23:58:26.414Z,73.56
